sensor_id;sensor_type;location;lat;lon;timestamp;P1;durP1;ratioP1;P2;durP2;ratioP2
42006;SDS011;27696;42.704;23.304;2023-04-01T00:01:05;25.25;;;17.00;;
42006;SDS011;27696;42.704;23.304;2023-04-01T00:03:32;28.77;;;17.15;;
42006;SDS011;27696;42.704;23.304;2023-04-01T00:05:58;30.42;;;17.92;;
42006;SDS011;27696;42.704;23.304;2023-04-01T00:08:24;31.83;;;17.52;;
42006;SDS011;27696;42.704;23.304;2023-04-01T00:10:51;26.67;;;17.95;;
42006;SDS011;27696;42.704;23.304;2023-04-01T00:13:17;29.30;;;16.77;;
42006;SDS011;27696;42.704;23.304;2023-04-01T00:15:43;33.90;;;18.45;;
42006;SDS011;27696;42.704;23.304;2023-04-01T00:18:09;28.08;;;18.10;;
42006;SDS011;27696;42.704;23.304;2023-04-01T00:20:35;28.63;;;17.35;;
42006;SDS011;27696;42.704;23.304;2023-04-01T00:23:00;26.02;;;17.25;;
42006;SDS011;27696;42.704;23.304;2023-04-01T00:25:26;28.35;;;17.73;;
42006;SDS011;27696;42.704;23.304;2023-04-01T00:27:52;24.13;;;16.33;;
42006;SDS011;27696;42.704;23.304;2023-04-01T00:30:17;22.02;;;15.95;;
42006;SDS011;27696;42.704;23.304;2023-04-01T00:32:43;26.58;;;16.42;;
42006;SDS011;27696;42.704;23.304;2023-04-01T00:35:08;28.70;;;16.23;;
42006;SDS011;27696;42.704;23.304;2023-04-01T00:37:34;27.25;;;17.33;;
42006;SDS011;27696;42.704;23.304;2023-04-01T00:40:02;28.70;;;16.77;;
42006;SDS011;27696;42.704;23.304;2023-04-01T00:42:28;31.00;;;16.88;;
42006;SDS011;27696;42.704;23.304;2023-04-01T00:44:54;26.70;;;17.08;;
42006;SDS011;27696;42.704;23.304;2023-04-01T00:47:21;29.73;;;17.48;;
42006;SDS011;27696;42.704;23.304;2023-04-01T00:49:48;25.60;;;16.50;;
42006;SDS011;27696;42.704;23.304;2023-04-01T00:52:16;27.13;;;16.58;;
42006;SDS011;27696;42.704;23.304;2023-04-01T00:54:44;20.27;;;14.85;;
42006;SDS011;27696;42.704;23.304;2023-04-01T00:59:46;23.83;;;14.82;;
42006;SDS011;27696;42.704;23.304;2023-04-01T01:02:14;21.48;;;14.48;;
42006;SDS011;27696;42.704;23.304;2023-04-01T01:04:40;23.35;;;14.13;;
42006;SDS011;27696;42.704;23.304;2023-04-01T01:12:34;21.77;;;13.35;;
42006;SDS011;27696;42.704;23.304;2023-04-01T01:21:26;20.02;;;13.60;;
42006;SDS011;27696;42.704;23.304;2023-04-01T01:24:17;24.85;;;13.40;;
42006;SDS011;27696;42.704;23.304;2023-04-01T01:27:02;22.23;;;13.70;;
42006;SDS011;27696;42.704;23.304;2023-04-01T01:32:10;22.17;;;13.45;;
42006;SDS011;27696;42.704;23.304;2023-04-01T01:37:17;21.90;;;14.38;;
42006;SDS011;27696;42.704;23.304;2023-04-01T01:39:44;25.65;;;13.82;;
42006;SDS011;27696;42.704;23.304;2023-04-01T01:42:15;18.60;;;13.18;;
42006;SDS011;27696;42.704;23.304;2023-04-01T01:44:41;20.70;;;13.73;;
42006;SDS011;27696;42.704;23.304;2023-04-01T01:47:09;22.60;;;13.13;;
42006;SDS011;27696;42.704;23.304;2023-04-01T01:49:35;27.45;;;12.25;;
42006;SDS011;27696;42.704;23.304;2023-04-01T01:52:02;30.88;;;12.77;;
42006;SDS011;27696;42.704;23.304;2023-04-01T01:54:28;32.60;;;13.32;;
42006;SDS011;27696;42.704;23.304;2023-04-01T01:57:07;24.10;;;13.55;;
42006;SDS011;27696;42.704;23.304;2023-04-01T01:59:35;31.33;;;14.18;;
42006;SDS011;27696;42.704;23.304;2023-04-01T02:02:02;26.90;;;13.05;;
42006;SDS011;27696;42.704;23.304;2023-04-01T02:04:34;15.50;;;10.88;;
42006;SDS011;27696;42.704;23.304;2023-04-01T02:07:04;23.50;;;12.23;;
42006;SDS011;27696;42.704;23.304;2023-04-01T02:09:41;25.75;;;12.05;;
42006;SDS011;27696;42.704;23.304;2023-04-01T02:12:10;20.48;;;11.63;;
42006;SDS011;27696;42.704;23.304;2023-04-01T02:17:10;30.17;;;12.15;;
42006;SDS011;27696;42.704;23.304;2023-04-01T02:19:38;20.35;;;11.38;;
42006;SDS011;27696;42.704;23.304;2023-04-01T02:22:06;25.02;;;12.50;;
42006;SDS011;27696;42.704;23.304;2023-04-01T02:24:35;19.50;;;12.05;;
42006;SDS011;27696;42.704;23.304;2023-04-01T02:27:02;21.63;;;12.20;;
42006;SDS011;27696;42.704;23.304;2023-04-01T02:29:28;20.27;;;11.98;;
42006;SDS011;27696;42.704;23.304;2023-04-01T02:31:54;19.17;;;11.25;;
42006;SDS011;27696;42.704;23.304;2023-04-01T02:34:20;51.25;;;12.75;;
42006;SDS011;27696;42.704;23.304;2023-04-01T02:36:47;26.00;;;12.10;;
42006;SDS011;27696;42.704;23.304;2023-04-01T02:39:13;22.05;;;10.63;;
42006;SDS011;27696;42.704;23.304;2023-04-01T02:41:42;21.77;;;10.48;;
42006;SDS011;27696;42.704;23.304;2023-04-01T02:44:09;31.35;;;12.15;;
42006;SDS011;27696;42.704;23.304;2023-04-01T02:46:35;26.33;;;12.35;;
42006;SDS011;27696;42.704;23.304;2023-04-01T02:49:01;20.65;;;11.55;;
42006;SDS011;27696;42.704;23.304;2023-04-01T02:51:26;22.15;;;11.38;;
42006;SDS011;27696;42.704;23.304;2023-04-01T02:53:52;20.15;;;11.98;;
42006;SDS011;27696;42.704;23.304;2023-04-01T02:56:17;22.70;;;11.40;;
42006;SDS011;27696;42.704;23.304;2023-04-01T02:58:44;23.02;;;13.43;;
42006;SDS011;27696;42.704;23.304;2023-04-01T03:01:10;21.40;;;12.60;;
42006;SDS011;27696;42.704;23.304;2023-04-01T03:03:35;22.98;;;13.88;;
42006;SDS011;27696;42.704;23.304;2023-04-01T03:06:04;20.70;;;13.32;;
42006;SDS011;27696;42.704;23.304;2023-04-01T03:08:34;24.25;;;12.70;;
42006;SDS011;27696;42.704;23.304;2023-04-01T03:11:00;25.58;;;15.48;;
42006;SDS011;27696;42.704;23.304;2023-04-01T03:13:25;21.75;;;14.57;;
42006;SDS011;27696;42.704;23.304;2023-04-01T03:15:51;26.85;;;15.73;;
42006;SDS011;27696;42.704;23.304;2023-04-01T03:18:16;26.40;;;14.20;;
42006;SDS011;27696;42.704;23.304;2023-04-01T03:20:42;23.30;;;15.80;;
42006;SDS011;27696;42.704;23.304;2023-04-01T03:23:07;25.45;;;16.40;;
42006;SDS011;27696;42.704;23.304;2023-04-01T03:25:33;24.52;;;15.00;;
42006;SDS011;27696;42.704;23.304;2023-04-01T03:27:58;23.00;;;16.45;;
42006;SDS011;27696;42.704;23.304;2023-04-01T03:30:25;27.33;;;15.57;;
42006;SDS011;27696;42.704;23.304;2023-04-01T03:32:50;28.17;;;15.57;;
42006;SDS011;27696;42.704;23.304;2023-04-01T03:35:16;22.75;;;15.38;;
42006;SDS011;27696;42.704;23.304;2023-04-01T03:37:41;23.30;;;14.23;;
42006;SDS011;27696;42.704;23.304;2023-04-01T03:40:07;28.60;;;14.25;;
42006;SDS011;27696;42.704;23.304;2023-04-01T03:42:33;26.88;;;13.77;;
42006;SDS011;27696;42.704;23.304;2023-04-01T03:44:58;20.60;;;13.77;;
42006;SDS011;27696;42.704;23.304;2023-04-01T03:47:24;22.45;;;13.68;;
42006;SDS011;27696;42.704;23.304;2023-04-01T03:49:49;24.27;;;13.68;;
42006;SDS011;27696;42.704;23.304;2023-04-01T03:52:14;26.02;;;13.73;;
42006;SDS011;27696;42.704;23.304;2023-04-01T03:54:40;23.40;;;13.88;;
42006;SDS011;27696;42.704;23.304;2023-04-01T03:57:06;21.35;;;14.48;;
42006;SDS011;27696;42.704;23.304;2023-04-01T03:59:31;22.30;;;13.35;;
42006;SDS011;27696;42.704;23.304;2023-04-01T04:01:56;23.77;;;14.35;;
42006;SDS011;27696;42.704;23.304;2023-04-01T04:04:22;21.98;;;13.30;;
42006;SDS011;27696;42.704;23.304;2023-04-01T04:06:47;22.35;;;13.90;;
42006;SDS011;27696;42.704;23.304;2023-04-01T04:09:13;27.17;;;14.63;;
42006;SDS011;27696;42.704;23.304;2023-04-01T04:11:38;26.30;;;14.63;;
42006;SDS011;27696;42.704;23.304;2023-04-01T04:14:04;27.55;;;14.27;;
42006;SDS011;27696;42.704;23.304;2023-04-01T04:16:30;27.02;;;13.90;;
42006;SDS011;27696;42.704;23.304;2023-04-01T04:18:55;21.10;;;13.40;;
42006;SDS011;27696;42.704;23.304;2023-04-01T04:21:21;18.60;;;13.15;;
42006;SDS011;27696;42.704;23.304;2023-04-01T04:23:46;23.30;;;13.68;;
42006;SDS011;27696;42.704;23.304;2023-04-01T04:26:12;20.30;;;12.60;;
42006;SDS011;27696;42.704;23.304;2023-04-01T04:28:39;20.17;;;12.05;;
42006;SDS011;27696;42.704;23.304;2023-04-01T04:31:05;17.58;;;11.65;;
42006;SDS011;27696;42.704;23.304;2023-04-01T04:33:31;23.10;;;13.02;;
42006;SDS011;27696;42.704;23.304;2023-04-01T04:35:59;21.58;;;13.40;;
42006;SDS011;27696;42.704;23.304;2023-04-01T04:38:25;23.63;;;12.32;;
42006;SDS011;27696;42.704;23.304;2023-04-01T04:40:51;21.02;;;12.13;;
42006;SDS011;27696;42.704;23.304;2023-04-01T04:43:17;20.73;;;12.13;;
42006;SDS011;27696;42.704;23.304;2023-04-01T04:45:42;20.42;;;11.23;;
42006;SDS011;27696;42.704;23.304;2023-04-01T04:48:11;24.75;;;11.90;;
42006;SDS011;27696;42.704;23.304;2023-04-01T04:50:41;21.95;;;11.57;;
42006;SDS011;27696;42.704;23.304;2023-04-01T04:53:09;24.98;;;11.73;;
42006;SDS011;27696;42.704;23.304;2023-04-01T04:55:35;24.40;;;12.45;;
42006;SDS011;27696;42.704;23.304;2023-04-01T04:58:00;33.40;;;12.35;;
42006;SDS011;27696;42.704;23.304;2023-04-01T05:00:26;23.73;;;12.23;;
42006;SDS011;27696;42.704;23.304;2023-04-01T05:02:51;26.20;;;12.55;;
42006;SDS011;27696;42.704;23.304;2023-04-01T05:05:17;25.17;;;11.80;;
42006;SDS011;27696;42.704;23.304;2023-04-01T05:07:45;29.35;;;12.50;;
42006;SDS011;27696;42.704;23.304;2023-04-01T05:10:13;24.95;;;12.02;;
42006;SDS011;27696;42.704;23.304;2023-04-01T05:12:38;26.90;;;12.70;;
42006;SDS011;27696;42.704;23.304;2023-04-01T05:15:04;27.65;;;11.75;;
42006;SDS011;27696;42.704;23.304;2023-04-01T05:17:30;29.55;;;13.15;;
42006;SDS011;27696;42.704;23.304;2023-04-01T05:19:56;21.77;;;11.55;;
42006;SDS011;27696;42.704;23.304;2023-04-01T05:22:22;26.60;;;11.10;;
42006;SDS011;27696;42.704;23.304;2023-04-01T05:24:48;14.57;;;10.60;;
42006;SDS011;27696;42.704;23.304;2023-04-01T05:27:13;27.58;;;11.35;;
42006;SDS011;27696;42.704;23.304;2023-04-01T05:29:39;35.85;;;12.20;;
42006;SDS011;27696;42.704;23.304;2023-04-01T05:32:04;31.08;;;10.38;;
42006;SDS011;27696;42.704;23.304;2023-04-01T05:34:30;29.27;;;11.18;;
42006;SDS011;27696;42.704;23.304;2023-04-01T05:36:55;39.47;;;19.52;;
42006;SDS011;27696;42.704;23.304;2023-04-01T05:39:21;34.47;;;17.60;;
42006;SDS011;27696;42.704;23.304;2023-04-01T05:41:46;26.80;;;12.93;;
42006;SDS011;27696;42.704;23.304;2023-04-01T05:44:12;27.27;;;13.48;;
42006;SDS011;27696;42.704;23.304;2023-04-01T05:46:37;25.60;;;13.48;;
42006;SDS011;27696;42.704;23.304;2023-04-01T05:49:03;40.58;;;15.73;;
42006;SDS011;27696;42.704;23.304;2023-04-01T05:51:28;32.22;;;15.23;;
42006;SDS011;27696;42.704;23.304;2023-04-01T05:53:54;29.50;;;13.77;;
42006;SDS011;27696;42.704;23.304;2023-04-01T05:56:19;29.33;;;14.15;;
42006;SDS011;27696;42.704;23.304;2023-04-01T05:58:46;29.70;;;13.38;;
42006;SDS011;27696;42.704;23.304;2023-04-01T06:01:12;22.90;;;11.15;;
42006;SDS011;27696;42.704;23.304;2023-04-01T06:03:38;26.10;;;10.25;;
42006;SDS011;27696;42.704;23.304;2023-04-01T06:06:04;18.58;;;8.50;;
42006;SDS011;27696;42.704;23.304;2023-04-01T06:08:30;21.70;;;8.70;;
42006;SDS011;27696;42.704;23.304;2023-04-01T06:52:21;11.48;;;5.10;;
42006;SDS011;27696;42.704;23.304;2023-04-01T06:54:52;13.13;;;5.63;;
42006;SDS011;27696;42.704;23.304;2023-04-01T06:57:44;15.98;;;5.97;;
42006;SDS011;27696;42.704;23.304;2023-04-01T07:00:19;16.30;;;6.38;;
42006;SDS011;27696;42.704;23.304;2023-04-01T07:02:50;13.32;;;5.70;;
42006;SDS011;27696;42.704;23.304;2023-04-01T07:05:39;12.85;;;5.30;;
42006;SDS011;27696;42.704;23.304;2023-04-01T07:08:06;15.00;;;5.20;;
42006;SDS011;27696;42.704;23.304;2023-04-01T07:10:43;11.52;;;5.65;;
42006;SDS011;27696;42.704;23.304;2023-04-01T07:21:43;16.50;;;5.50;;
42006;SDS011;27696;42.704;23.304;2023-04-01T07:24:22;13.35;;;5.60;;
42006;SDS011;27696;42.704;23.304;2023-04-01T07:26:52;10.20;;;5.45;;
42006;SDS011;27696;42.704;23.304;2023-04-01T07:29:20;12.60;;;5.50;;
42006;SDS011;27696;42.704;23.304;2023-04-01T07:37:15;18.48;;;7.05;;
42006;SDS011;27696;42.704;23.304;2023-04-01T07:45:30;15.20;;;6.80;;
42006;SDS011;27696;42.704;23.304;2023-04-01T07:48:04;15.43;;;6.60;;
42006;SDS011;27696;42.704;23.304;2023-04-01T07:53:36;13.23;;;6.20;;
42006;SDS011;27696;42.704;23.304;2023-04-01T08:02:14;15.10;;;6.47;;
42006;SDS011;27696;42.704;23.304;2023-04-01T08:10:48;17.00;;;6.18;;
42006;SDS011;27696;42.704;23.304;2023-04-01T08:21:02;16.08;;;6.55;;
42006;SDS011;27696;42.704;23.304;2023-04-01T08:23:32;13.43;;;6.70;;
42006;SDS011;27696;42.704;23.304;2023-04-01T08:31:48;23.25;;;8.20;;
42006;SDS011;27696;42.704;23.304;2023-04-01T08:34:23;19.67;;;6.43;;
42006;SDS011;27696;42.704;23.304;2023-04-01T08:36:53;12.98;;;6.70;;
42006;SDS011;27696;42.704;23.304;2023-04-01T08:39:46;14.57;;;6.45;;
42006;SDS011;27696;42.704;23.304;2023-04-01T08:42:28;14.73;;;5.85;;
42006;SDS011;27696;42.704;23.304;2023-04-01T08:50:31;14.98;;;6.25;;
42006;SDS011;27696;42.704;23.304;2023-04-01T08:56:18;14.70;;;5.68;;
42006;SDS011;27696;42.704;23.304;2023-04-01T09:01:26;15.43;;;5.78;;
42006;SDS011;27696;42.704;23.304;2023-04-01T09:06:35;12.35;;;4.38;;
42006;SDS011;27696;42.704;23.304;2023-04-01T09:20:42;17.55;;;4.63;;
42006;SDS011;27696;42.704;23.304;2023-04-01T09:45:21;15.27;;;3.88;;
42006;SDS011;27696;42.704;23.304;2023-04-01T09:56:19;10.68;;;4.63;;
42006;SDS011;27696;42.704;23.304;2023-04-01T10:46:24;15.23;;;5.38;;
42006;SDS011;27696;42.704;23.304;2023-04-01T10:54:46;12.73;;;4.60;;
42006;SDS011;27696;42.704;23.304;2023-04-01T11:14:35;15.88;;;4.68;;
42006;SDS011;27696;42.704;23.304;2023-04-01T11:26:08;8.63;;;4.30;;
42006;SDS011;27696;42.704;23.304;2023-04-01T11:37:22;13.00;;;2.97;;
42006;SDS011;27696;42.704;23.304;2023-04-01T11:57:05;10.70;;;2.85;;
42006;SDS011;27696;42.704;23.304;2023-04-01T12:05:42;7.72;;;3.00;;
42006;SDS011;27696;42.704;23.304;2023-04-01T12:08:15;11.52;;;3.30;;
42006;SDS011;27696;42.704;23.304;2023-04-01T12:14:08;10.38;;;3.75;;
42006;SDS011;27696;42.704;23.304;2023-04-01T12:24:42;7.65;;;3.75;;
42006;SDS011;27696;42.704;23.304;2023-04-01T12:30:14;10.00;;;4.55;;
42006;SDS011;27696;42.704;23.304;2023-04-01T12:41:08;7.97;;;4.28;;
42006;SDS011;27696;42.704;23.304;2023-04-01T12:49:08;9.55;;;4.50;;
42006;SDS011;27696;42.704;23.304;2023-04-01T13:10:59;10.57;;;6.78;;
42006;SDS011;27696;42.704;23.304;2023-04-01T13:16:26;12.38;;;8.05;;
42006;SDS011;27696;42.704;23.304;2023-04-01T13:18:57;10.35;;;6.63;;
42006;SDS011;27696;42.704;23.304;2023-04-01T13:24:16;7.25;;;4.25;;
42006;SDS011;27696;42.704;23.304;2023-04-01T13:29:32;9.02;;;4.78;;
42006;SDS011;27696;42.704;23.304;2023-04-01T13:32:04;6.93;;;3.20;;
42006;SDS011;27696;42.704;23.304;2023-04-01T13:35:23;7.88;;;3.22;;
42006;SDS011;27696;42.704;23.304;2023-04-01T13:40:33;6.50;;;3.88;;
42006;SDS011;27696;42.704;23.304;2023-04-01T13:43:25;5.28;;;3.03;;
42006;SDS011;27696;42.704;23.304;2023-04-01T13:55:06;4.53;;;2.45;;
42006;SDS011;27696;42.704;23.304;2023-04-01T14:06:06;3.40;;;1.77;;
42006;SDS011;27696;42.704;23.304;2023-04-01T14:08:51;3.38;;;1.45;;
42006;SDS011;27696;42.704;23.304;2023-04-01T14:11:42;1.50;;;1.13;;
42006;SDS011;27696;42.704;23.304;2023-04-01T14:35:53;5.95;;;2.47;;
42006;SDS011;27696;42.704;23.304;2023-04-01T14:38:51;7.80;;;3.42;;
42006;SDS011;27696;42.704;23.304;2023-04-01T14:50:14;6.28;;;3.33;;
42006;SDS011;27696;42.704;23.304;2023-04-01T14:55:48;8.73;;;4.13;;
42006;SDS011;27696;42.704;23.304;2023-04-01T15:09:06;12.73;;;4.80;;
42006;SDS011;27696;42.704;23.304;2023-04-01T15:22:57;8.10;;;4.10;;
42006;SDS011;27696;42.704;23.304;2023-04-01T15:25:39;7.72;;;3.97;;
42006;SDS011;27696;42.704;23.304;2023-04-01T15:36:26;6.38;;;3.15;;
42006;SDS011;27696;42.704;23.304;2023-04-01T15:39:00;7.82;;;3.58;;
42006;SDS011;27696;42.704;23.304;2023-04-01T15:46:55;6.57;;;3.95;;
42006;SDS011;27696;42.704;23.304;2023-04-01T15:49:32;8.40;;;1.70;;
42006;SDS011;27696;42.704;23.304;2023-04-01T16:08:47;3.75;;;3.35;;
42006;SDS011;27696;42.704;23.304;2023-04-01T16:11:33;6.50;;;4.38;;
42006;SDS011;27696;42.704;23.304;2023-04-01T16:16:42;4.72;;;3.85;;
42006;SDS011;27696;42.704;23.304;2023-04-01T16:19:33;6.10;;;4.35;;
42006;SDS011;27696;42.704;23.304;2023-04-01T16:29:58;4.82;;;4.07;;
42006;SDS011;27696;42.704;23.304;2023-04-01T16:32:49;4.22;;;3.38;;
42006;SDS011;27696;42.704;23.304;2023-04-01T16:43:39;3.33;;;3.00;;
42006;SDS011;27696;42.704;23.304;2023-04-01T16:56:42;2.30;;;2.10;;
42006;SDS011;27696;42.704;23.304;2023-04-01T17:01:44;2.17;;;1.98;;
42006;SDS011;27696;42.704;23.304;2023-04-01T17:04:56;2.40;;;2.20;;
42006;SDS011;27696;42.704;23.304;2023-04-01T17:07:23;1.95;;;1.65;;
42006;SDS011;27696;42.704;23.304;2023-04-01T17:20:19;1.95;;;1.70;;
42006;SDS011;27696;42.704;23.304;2023-04-01T17:25:57;2.30;;;2.10;;
42006;SDS011;27696;42.704;23.304;2023-04-01T17:47:28;2.35;;;2.15;;
42006;SDS011;27696;42.704;23.304;2023-04-01T17:55:35;4.53;;;3.88;;
42006;SDS011;27696;42.704;23.304;2023-04-01T18:17:39;2.10;;;2.00;;
42006;SDS011;27696;42.704;23.304;2023-04-01T18:23:04;4.05;;;2.47;;
42006;SDS011;27696;42.704;23.304;2023-04-01T18:26:01;2.53;;;2.33;;
42006;SDS011;27696;42.704;23.304;2023-04-01T18:33:50;2.22;;;2.03;;
42006;SDS011;27696;42.704;23.304;2023-04-01T18:38:53;2.30;;;2.10;;
42006;SDS011;27696;42.704;23.304;2023-04-01T18:41:23;2.50;;;2.22;;
42006;SDS011;27696;42.704;23.304;2023-04-01T18:46:39;3.08;;;2.78;;
42006;SDS011;27696;42.704;23.304;2023-04-01T18:52:13;4.03;;;2.80;;
42006;SDS011;27696;42.704;23.304;2023-04-01T18:54:45;2.58;;;2.38;;
42006;SDS011;27696;42.704;23.304;2023-04-01T18:57:18;3.08;;;2.53;;
42006;SDS011;27696;42.704;23.304;2023-04-01T18:59:53;2.88;;;2.63;;
42006;SDS011;27696;42.704;23.304;2023-04-01T19:07:46;2.20;;;2.00;;
42006;SDS011;27696;42.704;23.304;2023-04-01T19:18:11;2.40;;;2.20;;
42006;SDS011;27696;42.704;23.304;2023-04-01T19:26:05;2.40;;;2.20;;
42006;SDS011;27696;42.704;23.304;2023-04-01T19:28:39;1.65;;;1.55;;
42006;SDS011;27696;42.704;23.304;2023-04-01T19:36:53;1.45;;;1.35;;
42006;SDS011;27696;42.704;23.304;2023-04-01T19:39:41;1.40;;;1.30;;
42006;SDS011;27696;42.704;23.304;2023-04-01T19:53:01;1.67;;;1.58;;
42006;SDS011;27696;42.704;23.304;2023-04-01T19:55:50;1.60;;;1.50;;
42006;SDS011;27696;42.704;23.304;2023-04-01T19:58:36;2.42;;;1.45;;
42006;SDS011;27696;42.704;23.304;2023-04-01T20:01:34;1.50;;;1.40;;
42006;SDS011;27696;42.704;23.304;2023-04-01T20:04:03;2.35;;;1.60;;
42006;SDS011;27696;42.704;23.304;2023-04-01T20:06:35;1.60;;;1.50;;
42006;SDS011;27696;42.704;23.304;2023-04-01T20:14:27;1.30;;;1.20;;
42006;SDS011;27696;42.704;23.304;2023-04-01T20:17:18;2.20;;;1.98;;
42006;SDS011;27696;42.704;23.304;2023-04-01T20:19:58;1.67;;;1.52;;
42006;SDS011;27696;42.704;23.304;2023-04-01T20:22:31;1.90;;;1.80;;
42006;SDS011;27696;42.704;23.304;2023-04-01T20:25:10;2.33;;;2.03;;
42006;SDS011;27696;42.704;23.304;2023-04-01T20:44:20;2.80;;;2.17;;
42006;SDS011;27696;42.704;23.304;2023-04-01T20:46:51;5.55;;;2.63;;
42006;SDS011;27696;42.704;23.304;2023-04-01T20:49:33;4.10;;;2.40;;
42006;SDS011;27696;42.704;23.304;2023-04-01T21:08:28;3.13;;;2.20;;
42006;SDS011;27696;42.704;23.304;2023-04-01T21:17:12;2.50;;;1.90;;
42006;SDS011;27696;42.704;23.304;2023-04-01T21:22:39;2.67;;;1.90;;
42006;SDS011;27696;42.704;23.304;2023-04-01T21:28:01;2.10;;;1.73;;
42006;SDS011;27696;42.704;23.304;2023-04-01T21:51:50;2.67;;;1.20;;
42006;SDS011;27696;42.704;23.304;2023-04-01T22:03:52;1.85;;;1.30;;
42006;SDS011;27696;42.704;23.304;2023-04-01T22:09:41;1.98;;;1.73;;
42006;SDS011;27696;42.704;23.304;2023-04-01T22:12:41;2.83;;;1.70;;
42006;SDS011;27696;42.704;23.304;2023-04-01T22:20:33;1.33;;;1.20;;
42006;SDS011;27696;42.704;23.304;2023-04-01T22:23:20;3.05;;;1.75;;
42006;SDS011;27696;42.704;23.304;2023-04-01T22:26:18;3.72;;;1.60;;
42006;SDS011;27696;42.704;23.304;2023-04-01T22:32:00;13.52;;;9.57;;
42006;SDS011;27696;42.704;23.304;2023-04-01T22:50:50;3.10;;;1.77;;
42006;SDS011;27696;42.704;23.304;2023-04-01T22:56:18;2.42;;;1.55;;
42006;SDS011;27696;42.704;23.304;2023-04-01T22:59:06;2.35;;;1.38;;
42006;SDS011;27696;42.704;23.304;2023-04-01T23:01:55;2.13;;;1.23;;
42006;SDS011;27696;42.704;23.304;2023-04-01T23:04:24;3.60;;;1.50;;
42006;SDS011;27696;42.704;23.304;2023-04-01T23:06:56;1.63;;;1.20;;
42006;SDS011;27696;42.704;23.304;2023-04-01T23:09:28;2.60;;;1.30;;
42006;SDS011;27696;42.704;23.304;2023-04-01T23:17:01;2.72;;;1.30;;
42006;SDS011;27696;42.704;23.304;2023-04-01T23:22:13;3.53;;;1.30;;
42006;SDS011;27696;42.704;23.304;2023-04-01T23:27:23;2.03;;;0.90;;
42006;SDS011;27696;42.704;23.304;2023-04-01T23:29:53;1.73;;;1.10;;
42006;SDS011;27696;42.704;23.304;2023-04-01T23:32:19;2.03;;;1.27;;
42006;SDS011;27696;42.704;23.304;2023-04-01T23:34:50;1.98;;;1.17;;
42006;SDS011;27696;42.704;23.304;2023-04-01T23:37:17;2.63;;;1.25;;
42006;SDS011;27696;42.704;23.304;2023-04-01T23:39:54;3.00;;;1.60;;
42006;SDS011;27696;42.704;23.304;2023-04-01T23:42:25;2.38;;;1.20;;
42006;SDS011;27696;42.704;23.304;2023-04-01T23:44:57;7.65;;;1.70;;
42006;SDS011;27696;42.704;23.304;2023-04-01T23:47:26;4.10;;;2.15;;
42006;SDS011;27696;42.704;23.304;2023-04-01T23:50:16;3.33;;;1.65;;
42006;SDS011;27696;42.704;23.304;2023-04-01T23:52:48;4.32;;;1.75;;
42006;SDS011;27696;42.704;23.304;2023-04-01T23:55:18;4.90;;;1.77;;
